West Palm Beach, Florida
Current Conditions -  °F | °C
As of 8:53 PM on Sunday 23 Nov 2014 (Local Time) from KPBI Reporting Station
Broken Clouds Broken Clouds  
Wind Chill: 80°   Ceiling: 20000
Heat Index: 85°   Visibility: 10mi
Dew Point: 75°   Wind: 9mph
Humidity: 85%   Direction: 160°SSE
Pressure: 29.96"   Gusts: NA
Location:  26.71°N, 80.05°W
Report Text: KPBI 240153Z 16008KT 10SM SCT055 BKN200 27/24 A2996 RMK AO2 SLP143 T02670239
Loading
Personal Weather Stations






























Interactive Weather Map New forecast layout! Learn more

10-Day Weather Forecast

Advertisements
Track Severe Weather on mobile